Time;durP1;ratioP1;P1;durP2;ratioP2;P2;SDS_P1;SDS_P2;PMS_P1;PMS_P2;Temp;Humidity;BMP_temperature;BMP_pressure;BME280_temperature;BME280_humidity;BME280_pressure;Samples;Min_cycle;Max_cycle;Signal;HPM_P1;HPM_P2
2021/10/30 00:01:57;;;;;;;27.10;16.07;;;;;;;4.60;100.00;100517.19;5004801;28;20224;-76
2021/10/30 00:04:23;;;;;;;26.23;14.70;;;;;;;4.66;100.00;100512.03;5004597;28;20205;-73
2021/10/30 00:06:50;;;;;;;20.90;14.30;;;;;;;4.63;100.00;100514.59;5008993;28;20207;-73
2021/10/30 00:09:16;;;;;;;22.00;13.80;;;;;;;4.70;100.00;100518.88;5010171;28;20201;-73
2021/10/30 00:11:43;;;;;;;21.73;14.90;;;;;;;4.74;100.00;100522.31;5004026;28;20228;-74
2021/10/30 00:14:09;;;;;;;25.60;14.27;;;;;;;4.75;100.00;100524.03;5006385;28;20222;-73
2021/10/30 00:16:37;;;;;;;24.37;15.60;;;;;;;4.78;100.00;100515.41;5006484;28;20208;-75
2021/10/30 00:19:04;;;;;;;22.70;14.37;;;;;;;4.78;100.00;100518.84;5012269;28;20543;-74
2021/10/30 00:21:30;;;;;;;23.00;14.37;;;;;;;4.81;100.00;100518.84;5006969;28;20315;-73
2021/10/30 00:23:57;;;;;;;25.27;14.70;;;;;;;4.81;100.00;100517.97;5007552;28;20832;-73
2021/10/30 00:26:24;;;;;;;22.23;14.67;;;;;;;4.92;100.00;100522.25;5005345;28;20211;-74
2021/10/30 00:28:50;;;;;;;26.20;15.50;;;;;;;4.97;100.00;100523.94;5010659;28;20205;-74
2021/10/30 00:31:17;;;;;;;25.40;15.60;;;;;;;5.00;100.00;100527.38;5005395;28;20220;-73
2021/10/30 00:33:44;;;;;;;24.33;15.17;;;;;;;4.97;100.00;100521.34;5009324;28;20216;-74
2021/10/30 00:36:11;;;;;;;23.43;14.33;;;;;;;4.94;100.00;100517.03;5005838;28;20210;-74
2021/10/30 00:38:37;;;;;;;19.40;13.43;;;;;;;4.90;100.00;100525.69;5007960;28;20213;-73
2021/10/30 00:41:04;;;;;;;22.03;14.70;;;;;;;4.89;100.00;100518.78;5005010;28;20593;-73
2021/10/30 00:43:31;;;;;;;22.43;15.57;;;;;;;4.92;100.00;100514.50;5006267;28;20210;-74
2021/10/30 00:45:58;;;;;;;20.57;14.00;;;;;;;4.97;100.00;100523.94;5003425;28;20262;-73
2021/10/30 00:48:24;;;;;;;22.80;14.73;;;;;;;5.07;100.00;100512.69;5007889;28;20204;-73
2021/10/30 00:50:52;;;;;;;20.67;14.17;;;;;;;5.07;100.00;100504.94;5009637;28;20205;-73
2021/10/30 00:53:18;;;;;;;27.23;15.13;;;;;;;5.14;100.00;100506.63;5013239;28;20215;-73
2021/10/30 00:55:47;;;;;;;23.07;15.00;;;;;;;5.11;100.00;100511.81;5004189;28;20875;-74
2021/10/30 00:58:15;;;;;;;21.57;14.87;;;;;;;5.17;100.00;100508.31;5009154;28;20206;-74
2021/10/30 01:00:41;;;;;;;21.97;14.30;;;;;;;5.24;100.00;100507.41;5004591;28;20224;-73
2021/10/30 01:03:08;;;;;;;19.03;13.80;;;;;;;5.26;100.00;100505.69;5009713;28;20332;-74
2021/10/30 01:05:34;;;;;;;23.43;15.07;;;;;;;5.29;100.00;100500.50;5011942;28;20211;-73
2021/10/30 01:08:02;;;;;;;22.87;14.13;;;;;;;5.22;100.00;100494.50;5004916;28;20208;-74
2021/10/30 01:10:28;;;;;;;21.73;14.00;;;;;;;5.29;100.00;100497.91;5002742;28;20208;-74
2021/10/30 01:12:55;;;;;;;22.13;14.33;;;;;;;5.36;100.00;100497.00;5007230;28;20227;-74
2021/10/30 01:15:22;;;;;;;25.63;15.57;;;;;;;5.36;100.00;100498.72;5002745;28;20220;-75
2021/10/30 01:17:48;;;;;;;21.97;14.70;;;;;;;5.36;100.00;100499.56;5005589;28;20209;-74
2021/10/30 01:20:24;;;;;;;21.07;14.47;;;;;;;5.41;100.00;100490.06;5001080;28;20205;-73
2021/10/30 01:22:51;;;;;;;21.60;15.33;;;;;;;5.42;100.00;100491.78;5005582;28;20229;-75
2021/10/30 01:25:21;;;;;;;22.60;15.13;;;;;;;5.54;100.00;100484.81;5004192;28;20755;-75
2021/10/30 01:27:50;;;;;;;23.87;14.40;;;;;;;5.60;100.00;100490.78;5004029;28;20202;-75
2021/10/30 01:30:17;;;;;;;24.00;15.30;;;;;;;5.62;99.83;100483.88;5006144;28;20862;-74
2021/10/30 01:32:52;;;;;;;22.57;13.80;;;;;;;5.58;100.00;100487.38;5003897;28;20649;-74
2021/10/30 01:35:27;;;;;;;19.63;14.03;;;;;;;5.64;99.87;100483.88;4999948;28;20741;-73
2021/10/30 01:37:54;;;;;;;21.03;14.20;;;;;;;5.63;99.81;100477.84;5010158;28;20199;-75
2021/10/30 01:40:21;;;;;;;21.40;14.07;;;;;;;5.66;99.74;100480.41;4998908;28;20205;-73
2021/10/30 01:42:54;;;;;;;23.00;14.10;;;;;;;5.63;99.98;100485.59;5007871;28;20399;-74
2021/10/30 01:49:08;;;;;;;19.33;13.80;;;;;;;5.66;99.78;100480.41;4997419;28;20208;-73
2021/10/30 01:51:35;;;;;;;20.87;13.93;;;;;;;5.63;99.42;100475.25;5006054;28;20226;-75
2021/10/30 01:54:02;;;;;;;23.53;14.27;;;;;;;5.74;99.16;100474.31;5006806;28;20799;-73
2021/10/30 01:56:29;;;;;;;21.77;14.57;;;;;;;5.75;98.84;100470.84;5004197;28;20201;-73
2021/10/30 01:58:55;;;;;;;21.23;13.43;;;;;;;5.76;98.44;100472.56;5022956;28;20241;-73
2021/10/30 02:01:22;;;;;;;23.10;13.97;;;;;;;5.79;98.38;100464.78;5001513;28;20310;-73
2021/10/30 02:03:48;;;;;;;22.10;14.20;;;;;;;5.78;98.53;100466.50;5003775;28;20210;-73
2021/10/30 02:06:16;;;;;;;21.00;14.77;;;;;;;5.82;98.43;100469.91;5005743;28;20231;-74
2021/10/30 02:08:45;;;;;;;19.07;13.60;;;;;;;5.87;97.84;100462.97;5004205;28;20287;-73
2021/10/30 02:11:11;;;;;;;19.90;12.43;;;;;;;5.90;97.32;100468.13;5004951;28;20223;-73
2021/10/30 02:13:38;;;;;;;20.50;14.23;;;;;;;5.91;97.70;100459.50;5003780;28;20200;-73
2021/10/30 02:16:04;;;;;;;21.07;14.70;;;;;;;5.93;97.30;100456.88;5002889;28;20208;-73
2021/10/30 02:18:31;;;;;;;19.33;13.10;;;;;;;5.92;96.85;100456.00;5003824;28;20666;-73
2021/10/30 02:20:57;;;;;;;22.97;13.27;;;;;;;5.85;97.66;100450.03;5002936;28;20197;-76
2021/10/30 02:23:24;;;;;;;21.33;13.00;;;;;;;5.82;97.63;100451.78;5004707;28;20208;-76
2021/10/30 02:25:51;;;;;;;21.00;13.53;;;;;;;5.83;97.31;100454.38;5002549;28;20207;-74
2021/10/30 02:28:18;;;;;;;16.57;12.40;;;;;;;5.81;97.59;100457.84;5006645;28;20203;-75
2021/10/30 02:30:44;;;;;;;18.50;12.93;;;;;;;5.78;97.32;100456.13;5002113;28;20212;-73
2021/10/30 02:33:11;;;;;;;20.60;13.47;;;;;;;5.75;97.08;100471.72;5004752;28;20295;-73
2021/10/30 02:35:37;;;;;;;17.47;13.33;;;;;;;5.73;97.36;100468.25;5003043;28;20228;-73
2021/10/30 02:38:04;;;;;;;18.50;13.87;;;;;;;5.71;97.72;100454.47;5001836;28;20212;-74
2021/10/30 02:40:31;;;;;;;16.83;12.30;;;;;;;5.70;97.44;100460.53;5001651;28;20212;-73
2021/10/30 02:42:59;;;;;;;19.77;13.53;;;;;;;5.75;96.82;100461.38;5002041;28;20248;-73
2021/10/30 02:45:26;;;;;;;19.33;13.00;;;;;;;5.72;97.22;100473.44;5001076;28;20200;-74
2021/10/30 02:47:52;;;;;;;18.20;13.40;;;;;;;5.67;97.86;100476.94;5003637;28;20205;-75
2021/10/30 02:50:19;;;;;;;20.50;14.13;;;;;;;5.69;97.67;100470.00;4999966;28;20201;-75
2021/10/30 02:52:45;;;;;;;17.67;12.87;;;;;;;5.65;97.53;100470.91;5000210;28;20254;-73
2021/10/30 02:55:12;;;;;;;20.67;13.20;;;;;;;5.61;97.68;100461.47;5006424;28;20239;-73
2021/10/30 02:57:46;;;;;;;19.80;13.63;;;;;;;5.60;97.67;100466.66;5005992;28;20580;-73
2021/10/30 03:00:15;;;;;;;16.83;12.50;;;;;;;5.51;97.84;100472.75;5006275;28;20777;-76
2021/10/30 03:02:41;;;;;;;18.80;12.77;;;;;;;5.42;98.82;100478.00;5011248;28;20224;-73
2021/10/30 03:05:08;;;;;;;19.03;12.73;;;;;;;5.32;99.74;100482.38;5008708;28;20291;-75
2021/10/30 03:07:35;;;;;;;19.43;12.57;;;;;;;5.34;100.00;100474.63;5005241;28;20215;-74
2021/10/30 03:10:02;;;;;;;24.27;13.70;;;;;;;5.37;99.54;100480.63;5000311;28;20203;-75
2021/10/30 03:12:28;;;;;;;18.57;13.20;;;;;;;5.41;99.39;100474.53;5002117;28;20228;-75
2021/10/30 03:14:55;;;;;;;17.70;12.50;;;;;;;5.38;99.08;100489.22;5007848;28;20296;-73
2021/10/30 03:17:22;;;;;;;20.43;12.97;;;;;;;5.31;99.13;100470.31;5006273;28;20205;-75
2021/10/30 03:19:49;;;;;;;18.57;13.07;;;;;;;5.31;99.57;100478.06;5002267;28;20215;-75
2021/10/30 03:22:15;;;;;;;19.53;13.20;;;;;;;5.30;99.40;100474.63;5007218;28;20228;-74
2021/10/30 03:24:42;;;;;;;18.90;11.97;;;;;;;5.25;99.29;100481.56;5005756;28;20315;-74
2021/10/30 03:27:09;;;;;;;21.37;13.43;;;;;;;5.21;99.71;100471.25;5004777;28;20263;-73
2021/10/30 03:29:35;;;;;;;20.07;13.27;;;;;;;5.18;99.92;100484.19;5008635;28;20213;-73
2021/10/30 03:32:01;;;;;;;19.87;13.20;;;;;;;5.14;100.00;100493.69;5012513;28;20224;-74
2021/10/30 03:34:29;;;;;;;19.77;12.90;;;;;;;5.08;100.00;100494.59;5020843;28;20227;-74
2021/10/30 03:36:56;;;;;;;17.37;12.30;;;;;;;5.02;100.00;100496.34;5012061;28;20200;-74
2021/10/30 03:39:22;;;;;;;22.47;13.43;;;;;;;4.92;100.00;100499.00;5007458;28;20213;-72
2021/10/30 03:41:48;;;;;;;18.60;12.60;;;;;;;4.85;100.00;100501.59;5029517;28;20228;-72
2021/10/30 03:44:15;;;;;;;17.87;11.97;;;;;;;4.74;100.00;100499.06;5006768;28;20263;-73
2021/10/30 03:46:41;;;;;;;19.50;12.93;;;;;;;4.66;100.00;100500.81;5032442;28;20597;-73
2021/10/30 03:49:08;;;;;;;22.07;13.37;;;;;;;4.55;100.00;100488.78;5008109;28;20219;-71
2021/10/30 03:51:36;;;;;;;18.47;11.40;;;;;;;4.44;100.00;100498.31;5011020;28;20235;-71
2021/10/30 03:54:03;;;;;;;20.63;12.57;;;;;;;4.38;100.00;100502.63;5008836;28;20220;-71
2021/10/30 03:56:29;;;;;;;21.60;13.77;;;;;;;4.31;100.00;100494.03;5007838;28;20255;-72
2021/10/30 03:58:55;;;;;;;19.47;13.10;;;;;;;4.15;100.00;100491.50;5008789;28;20579;-72
2021/10/30 04:01:22;;;;;;;18.37;12.80;;;;;;;4.04;100.00;100490.63;5011428;28;20897;-72
2021/10/30 04:03:49;;;;;;;20.10;13.10;;;;;;;3.99;100.00;100489.78;5008946;28;20304;-71
2021/10/30 04:06:15;;;;;;;18.70;12.97;;;;;;;3.97;100.00;100491.50;5011006;28;20203;-72
2021/10/30 04:08:44;;;;;;;20.57;11.63;;;;;;;3.92;100.00;100493.22;5003285;28;20284;-73
2021/10/30 04:11:11;;;;;;;17.53;12.80;;;;;;;3.83;100.00;100488.09;5006806;28;20228;-73
2021/10/30 04:13:37;;;;;;;21.13;13.67;;;;;;;3.82;100.00;100484.66;5006208;28;20215;-71
2021/10/30 04:16:04;;;;;;;20.97;13.53;;;;;;;3.77;100.00;100479.50;5008042;28;20578;-73
2021/10/30 04:18:31;;;;;;;22.23;14.47;;;;;;;3.71;100.00;100484.66;5011084;28;20304;-72
2021/10/30 04:20:57;;;;;;;20.83;13.93;;;;;;;3.64;100.00;100484.66;5004521;28;20340;-72
2021/10/30 04:23:23;;;;;;;16.83;12.07;;;;;;;3.63;100.00;100481.22;5006061;28;20304;-72
2021/10/30 04:25:51;;;;;;;21.43;13.47;;;;;;;3.63;100.00;100482.94;5003371;28;20215;-72
2021/10/30 04:28:19;;;;;;;18.83;12.80;;;;;;;3.50;100.00;100482.06;5012108;28;20209;-73
2021/10/30 04:30:45;;;;;;;20.73;13.00;;;;;;;3.46;100.00;100482.94;5003312;28;20429;-73
2021/10/30 04:33:14;;;;;;;18.37;12.13;;;;;;;3.43;100.00;100470.91;5003886;28;20220;-73
2021/10/30 04:35:42;;;;;;;18.37;12.50;;;;;;;3.40;100.00;100468.34;5004294;28;20256;-73
2021/10/30 04:38:09;;;;;;;20.43;12.67;;;;;;;3.39;100.00;100466.59;5007757;28;20204;-72
2021/10/30 04:40:36;;;;;;;21.77;13.07;;;;;;;3.32;100.00;100460.56;5006801;28;20203;-73
2021/10/30 04:43:04;;;;;;;20.77;12.73;;;;;;;3.23;100.00;100452.84;5009908;28;20228;-72
2021/10/30 04:45:31;;;;;;;20.27;13.43;;;;;;;3.23;100.00;100443.38;5008022;28;20563;-72
2021/10/30 04:47:58;;;;;;;21.53;13.33;;;;;;;3.27;100.00;100446.81;5008445;28;20212;-73
2021/10/30 04:50:24;;;;;;;22.33;13.57;;;;;;;3.38;100.00;100441.69;5006280;28;20215;-73
2021/10/30 04:52:51;;;;;;;25.20;15.60;;;;;;;3.41;100.00;100428.78;5015383;28;20225;-72
2021/10/30 04:55:17;;;;;;;20.47;14.37;;;;;;;3.45;100.00;100427.06;5003406;28;20718;-71
2021/10/30 04:57:43;;;;;;;27.40;14.90;;;;;;;3.50;100.00;100425.34;5005674;28;20205;-71
2021/10/30 05:00:13;;;;;;;26.40;16.27;;;;;;;3.59;100.00;100423.66;5006914;28;20650;-72
2021/10/30 05:02:39;;;;;;;23.67;15.00;;;;;;;3.66;100.00;100419.34;5022465;28;20231;-73
2021/10/30 05:05:06;;;;;;;25.30;16.30;;;;;;;3.70;100.00;100420.19;5002960;28;20201;-72
2021/10/30 05:07:33;;;;;;;27.67;16.20;;;;;;;3.68;100.00;100424.50;5007557;28;20260;-71
2021/10/30 05:10:00;;;;;;;22.90;15.93;;;;;;;3.67;100.00;100427.94;5006338;28;20600;-72
2021/10/30 05:12:26;;;;;;;24.50;15.73;;;;;;;3.68;100.00;100421.94;5001672;28;20286;-70
2021/10/30 05:14:52;;;;;;;24.37;15.33;;;;;;;3.68;100.00;100421.94;5004944;28;20227;-72
2021/10/30 05:17:20;;;;;;;25.20;15.17;;;;;;;3.62;100.00;100430.50;5000959;28;20209;-72
2021/10/30 05:19:47;;;;;;;23.77;15.27;;;;;;;3.56;100.00;100425.38;4999499;28;20213;-72
2021/10/30 05:22:13;;;;;;;24.50;14.47;;;;;;;3.54;100.00;100432.25;5003665;28;20366;-71
2021/10/30 05:24:40;;;;;;;24.13;14.80;;;;;;;3.50;100.00;100423.66;5004705;28;20212;-72
2021/10/30 05:27:07;;;;;;;22.73;13.73;;;;;;;3.45;100.00;100427.94;5004049;28;20200;-73
2021/10/30 05:29:35;;;;;;;22.90;13.63;;;;;;;3.44;100.00;100425.38;5001629;28;20761;-72
2021/10/30 05:32:01;;;;;;;21.77;14.57;;;;;;;3.36;100.00;100421.06;5007547;28;20223;-72
2021/10/30 05:34:30;;;;;;;21.73;14.63;;;;;;;3.33;100.00;100421.06;5005136;28;20222;-72
2021/10/30 05:37:25;;;;;;;22.73;14.63;;;;;;;3.31;100.00;100420.22;4996579;28;20279;-72
2021/10/30 05:39:53;;;;;;;20.87;14.57;;;;;;;3.31;100.00;100419.38;5003683;28;20283;-73
2021/10/30 05:42:20;;;;;;;23.20;14.87;;;;;;;3.28;100.00;100416.78;5005171;28;20418;-72
2021/10/30 05:44:47;;;;;;;21.40;14.07;;;;;;;3.26;100.00;100416.78;5005665;28;20296;-72
2021/10/30 05:47:14;;;;;;;21.27;14.83;;;;;;;3.23;100.00;100409.88;5002002;28;20215;-73
2021/10/30 05:49:44;;;;;;;24.03;14.97;;;;;;;3.17;100.00;100409.03;5002616;28;20569;-72
2021/10/30 05:52:11;;;;;;;23.47;14.77;;;;;;;3.12;100.00;100410.75;5001709;28;20252;-71
2021/10/30 05:54:39;;;;;;;24.10;14.60;;;;;;;3.09;100.00;100409.03;5005473;28;20222;-73
2021/10/30 05:57:06;;;;;;;22.33;14.57;;;;;;;3.13;100.00;100412.47;5008295;28;20203;-73
2021/10/30 05:59:32;;;;;;;22.07;14.50;;;;;;;3.11;100.00;100415.03;5000228;28;20201;-72
2021/10/30 06:01:58;;;;;;;23.50;14.37;;;;;;;3.06;100.00;100414.19;5007261;28;20227;-72
2021/10/30 06:04:25;;;;;;;23.30;14.97;;;;;;;3.06;100.00;100403.88;5004560;28;20209;-72
2021/10/30 06:06:52;;;;;;;25.80;15.17;;;;;;;3.07;100.00;100403.00;5004242;28;20205;-71
2021/10/30 06:09:19;;;;;;;24.67;14.57;;;;;;;3.07;100.00;100407.31;4998730;28;20204;-72
2021/10/30 06:11:46;;;;;;;24.17;14.03;;;;;;;3.04;100.00;100403.00;5002642;28;20573;-73
2021/10/30 06:14:12;;;;;;;24.90;15.50;;;;;;;3.12;100.00;100406.47;5018055;28;20211;-72
2021/10/30 06:16:39;;;;;;;25.07;14.57;;;;;;;3.06;100.00;100406.47;5007940;28;20224;-73
2021/10/30 06:19:05;;;;;;;22.17;14.30;;;;;;;3.07;100.00;100402.16;4999704;28;20705;-73
2021/10/30 06:21:32;;;;;;;22.50;15.27;;;;;;;3.11;100.00;100402.16;5006476;28;20235;-73
2021/10/30 06:24:00;;;;;;;21.20;14.07;;;;;;;3.03;100.00;100409.03;5006387;28;20203;-73
2021/10/30 06:26:27;;;;;;;24.17;13.60;;;;;;;2.99;100.00;100409.88;5004577;28;20196;-72
2021/10/30 06:28:54;;;;;;;23.07;15.23;;;;;;;3.09;100.00;100403.03;5008683;28;20862;-73
2021/10/30 06:31:21;;;;;;;23.63;15.10;;;;;;;3.00;100.00;100407.28;5008377;28;20748;-72
2021/10/30 06:33:47;;;;;;;22.00;15.00;;;;;;;3.01;100.00;100410.75;5003711;28;20212;-72
2021/10/30 06:36:14;;;;;;;27.60;14.63;;;;;;;2.98;100.00;100408.16;5000565;28;20222;-73
2021/10/30 06:38:40;;;;;;;24.80;14.27;;;;;;;2.98;100.00;100400.44;5007211;28;20213;-71
2021/10/30 06:41:11;;;;;;;23.83;13.90;;;;;;;2.98;100.00;100403.00;5013146;28;20236;-71
2021/10/30 06:43:38;;;;;;;22.13;14.70;;;;;;;2.98;100.00;100400.44;5005597;28;20211;-73
2021/10/30 06:46:05;;;;;;;23.43;14.57;;;;;;;2.89;100.00;100398.69;5010491;28;20293;-72
2021/10/30 06:48:33;;;;;;;23.90;14.67;;;;;;;2.84;100.00;100406.41;5005797;28;20204;-72
2021/10/30 06:50:59;;;;;;;29.27;15.60;;;;;;;2.94;100.00;100399.56;5004430;28;20232;-71
2021/10/30 06:53:25;;;;;;;23.60;15.03;;;;;;;2.98;100.00;100390.13;4998551;28;20253;-72
2021/10/30 06:55:54;;;;;;;24.73;15.90;;;;;;;2.89;100.00;100385.81;5004174;28;20216;-73
2021/10/30 06:58:22;;;;;;;27.00;16.73;;;;;;;2.91;100.00;100390.97;5004352;28;20200;-73
2021/10/30 07:00:48;;;;;;;28.33;16.60;;;;;;;2.96;100.00;100397.00;5007251;28;20436;-72
2021/10/30 07:03:15;;;;;;;25.03;16.63;;;;;;;3.00;100.00;100396.13;5004489;28;20805;-71
2021/10/30 07:05:41;;;;;;;27.67;17.97;;;;;;;3.04;100.00;100403.00;5013182;28;20207;-72
2021/10/30 07:08:08;;;;;;;30.67;19.67;;;;;;;3.15;100.00;100390.13;5006295;28;20207;-70
2021/10/30 07:10:34;;;;;;;28.80;19.37;;;;;;;3.25;100.00;100393.56;5008295;28;20265;-72
2021/10/30 07:13:01;;;;;;;30.60;19.97;;;;;;;3.41;100.00;100393.59;5014308;28;20220;-72
2021/10/30 07:15:28;;;;;;;34.80;20.40;;;;;;;3.55;100.00;100400.44;5017712;28;20262;-71
2021/10/30 07:17:55;;;;;;;32.70;20.20;;;;;;;3.71;100.00;100407.31;5001511;28;20300;-72
2021/10/30 07:20:21;;;;;;;36.40;22.10;;;;;;;3.92;100.00;100395.22;5007287;28;20203;-73
2021/10/30 07:22:49;;;;;;;35.80;21.60;;;;;;;4.17;100.00;100393.44;5008082;28;20231;-72
2021/10/30 07:25:20;;;;;;;42.63;23.07;;;;;;;4.36;100.00;100391.63;5005662;28;20203;-72
2021/10/30 07:27:46;;;;;;;36.47;22.70;;;;;;;4.62;100.00;100390.66;5005644;28;20204;-73
2021/10/30 07:30:13;;;;;;;40.20;22.63;;;;;;;4.73;100.00;100392.31;5007106;28;20708;-71
2021/10/30 07:32:41;;;;;;;37.80;21.90;;;;;;;4.95;100.00;100396.47;5005105;28;20240;-71
2021/10/30 07:35:09;;;;;;;34.40;20.53;;;;;;;5.12;100.00;100405.84;5003487;28;20206;-73
2021/10/30 07:37:35;;;;;;;30.97;20.43;;;;;;;5.39;100.00;100411.66;5001252;28;20552;-71
2021/10/30 07:40:03;;;;;;;34.13;21.53;;;;;;;5.45;100.00;100411.63;5006663;28;20523;-73
2021/10/30 07:42:30;;;;;;;37.83;22.40;;;;;;;5.65;100.00;100418.34;5006039;28;20224;-72
2021/10/30 07:44:56;;;;;;;36.40;23.57;;;;;;;5.81;100.00;100414.72;5005746;28;20204;-72
2021/10/30 07:47:23;;;;;;;34.73;22.67;;;;;;;5.99;100.00;100402.50;5003164;28;20205;-72
2021/10/30 07:49:51;;;;;;;31.27;22.20;;;;;;;6.13;100.00;100402.34;5007949;28;20221;-72
2021/10/30 07:52:17;;;;;;;24.10;17.50;;;;;;;6.36;100.00;100397.75;5005659;28;20230;-72
2021/10/30 07:54:44;;;;;;;25.87;17.30;;;;;;;6.52;100.00;100395.81;5010672;28;20218;-73
2021/10/30 07:57:12;;;;;;;23.10;15.47;;;;;;;6.60;100.00;100398.31;5000061;28;20710;-72
2021/10/30 07:59:39;;;;;;;21.73;15.53;;;;;;;6.76;99.40;100394.63;4998432;28;20306;-73
2021/10/30 08:02:07;;;;;;;22.80;15.33;;;;;;;6.89;98.87;100397.06;4998448;28;20232;-73
2021/10/30 08:04:34;;;;;;;24.17;15.83;;;;;;;7.02;97.37;100396.00;5003083;28;20582;-72
2021/10/30 08:07:02;;;;;;;19.67;13.67;;;;;;;7.15;96.19;100394.06;5008818;28;20727;-73
2021/10/30 08:09:29;;;;;;;22.93;14.80;;;;;;;7.31;95.24;100399.88;5006090;28;20279;-71
2021/10/30 08:11:55;;;;;;;21.83;14.53;;;;;;;7.47;93.73;100395.28;5015953;28;20263;-72
2021/10/30 08:14:22;;;;;;;19.70;14.77;;;;;;;7.55;93.50;100388.22;5007113;28;20205;-73
2021/10/30 08:16:49;;;;;;;20.60;13.80;;;;;;;7.66;92.42;100388.88;5007820;28;20244;-74
2021/10/30 08:19:15;;;;;;;20.77;15.03;;;;;;;7.78;91.27;100391.25;5003570;28;20204;-71
2021/10/30 08:21:42;;;;;;;22.47;14.37;;;;;;;7.99;89.18;100386.56;5012032;28;20614;-74
2021/10/30 08:24:10;;;;;;;19.90;13.70;;;;;;;8.07;89.36;100383.78;5006867;28;20226;-70
2021/10/30 08:26:36;;;;;;;18.50;13.77;;;;;;;8.17;89.01;100387.09;5005143;28;20213;-74
2021/10/30 08:29:03;;;;;;;20.57;14.37;;;;;;;8.22;88.16;100386.09;5003263;28;20577;-72
2021/10/30 08:31:30;;;;;;;22.27;15.47;;;;;;;8.31;88.19;100372.91;5007735;28;20327;-72
2021/10/30 08:33:57;;;;;;;18.13;13.67;;;;;;;8.43;87.73;100376.19;5001737;28;20300;-73
2021/10/30 08:36:23;;;;;;;20.40;14.83;;;;;;;8.52;86.72;100378.59;5003028;28;20221;-74
2021/10/30 08:38:50;;;;;;;18.47;13.37;;;;;;;8.63;85.23;100371.41;5006144;28;20217;-74
2021/10/30 08:41:18;;;;;;;18.90;14.20;;;;;;;8.69;85.83;100366.06;5001583;28;20237;-73
2021/10/30 08:43:44;;;;;;;19.70;14.03;;;;;;;8.77;85.13;100368.50;5002650;28;20621;-74
2021/10/30 08:46:11;;;;;;;18.73;13.40;;;;;;;8.88;84.18;100369.13;5005142;28;20202;-71
2021/10/30 08:48:38;;;;;;;18.03;12.70;;;;;;;8.91;84.59;100360.38;5004601;28;20214;-72
2021/10/30 08:51:05;;;;;;;19.10;13.70;;;;;;;8.97;84.69;100364.56;5005839;28;20733;-73
2021/10/30 08:53:31;;;;;;;18.13;13.03;;;;;;;9.05;84.51;100360.91;5001027;28;20205;-74
2021/10/30 08:56:03;;;;;;;19.47;13.60;;;;;;;9.16;83.28;100345.03;5007954;28;20229;-73
2021/10/30 08:58:31;;;;;;;15.23;11.93;;;;;;;9.32;82.39;100340.28;5001416;28;20277;-70
2021/10/30 09:01:01;;;;;;;19.63;13.07;;;;;;;9.44;81.28;100344.34;5003508;28;20284;-73
2021/10/30 09:03:28;;;;;;;19.77;12.90;;;;;;;9.48;81.59;100349.44;5004035;28;20896;-72
2021/10/30 09:05:56;;;;;;;20.40;12.90;;;;;;;9.60;79.97;100344.78;5004858;28;20205;-73
2021/10/30 09:08:26;;;;;;;17.10;12.30;;;;;;;9.76;78.94;100338.28;5000261;28;20802;-70
2021/10/30 09:10:55;;;;;;;18.83;13.30;;;;;;;9.83;78.38;100332.03;5004968;28;20200;-70
2021/10/30 09:13:23;;;;;;;16.83;12.70;;;;;;;9.90;78.21;100334.44;5003473;28;20287;-74
2021/10/30 09:15:53;;;;;;;19.50;12.03;;;;;;;10.01;76.82;100325.44;5004844;28;20214;-74
2021/10/30 09:18:22;;;;;;;17.13;12.70;;;;;;;10.08;77.33;100325.25;5002241;28;20825;-74
2021/10/30 09:20:49;;;;;;;17.40;12.57;;;;;;;10.21;76.64;100310.97;5007416;28;20303;-71
2021/10/30 09:23:15;;;;;;;20.40;12.17;;;;;;;10.28;76.07;100311.66;5018299;28;20208;-73
2021/10/30 09:25:52;;;;;;;16.67;12.00;;;;;;;10.36;74.53;100320.09;5004661;28;20216;-72
2021/10/30 09:28:21;;;;;;;17.57;11.17;;;;;;;10.49;73.35;100318.00;5001737;28;20234;-72
2021/10/30 09:30:52;;;;;;;15.23;11.60;;;;;;;10.60;73.17;100303.72;5000908;28;20207;-74
2021/10/30 09:33:20;;;;;;;19.67;11.87;;;;;;;10.58;72.08;100302.91;5003615;28;20581;-73
2021/10/30 09:35:47;;;;;;;15.17;10.77;;;;;;;10.65;73.03;100300.97;5010205;28;20205;-73
2021/10/30 09:38:30;;;;;;;16.57;10.70;;;;;;;10.78;71.54;100304.91;5003854;28;20651;-74
2021/10/30 09:40:57;;;;;;;18.13;11.40;;;;;;;10.80;71.74;100297.88;5000702;28;20201;-74
2021/10/30 09:43:24;;;;;;;16.90;11.27;;;;;;;10.88;70.54;100302.00;5002584;28;20204;-72
2021/10/30 09:45:51;;;;;;;15.77;11.30;;;;;;;10.89;70.36;100299.34;4998714;28;20220;-73
2021/10/30 09:48:23;;;;;;;13.30;10.63;;;;;;;11.05;69.15;100294.47;5002405;28;20205;-73
2021/10/30 09:50:51;;;;;;;17.33;10.70;;;;;;;11.08;69.63;100291.75;5002013;28;20205;-73
2021/10/30 09:53:29;;;;;;;15.70;10.43;;;;;;;11.13;68.56;100288.97;4996591;28;20216;-73
2021/10/30 09:55:58;;;;;;;13.60;9.80;;;;;;;11.22;67.96;100280.00;5005148;28;20266;-74
2021/10/30 09:58:32;;;;;;;14.00;10.17;;;;;;;11.32;67.09;100276.16;5002002;28;20981;-73
2021/10/30 10:01:07;;;;;;;14.23;10.87;;;;;;;11.40;65.43;100281.97;5000399;28;20211;-74
2021/10/30 10:03:36;;;;;;;13.70;9.93;;;;;;;11.45;66.61;100271.34;5005370;28;20311;-74
2021/10/30 10:06:05;;;;;;;19.60;10.47;;;;;;;11.49;66.07;100275.59;5000544;28;20205;-70
2021/10/30 10:08:36;;;;;;;14.77;10.23;;;;;;;11.55;65.03;100270.13;4999161;28;20225;-71
2021/10/30 10:11:04;;;;;;;15.83;10.53;;;;;;;11.59;65.06;100274.34;5003106;28;20267;-74
2021/10/30 10:13:36;;;;;;;13.93;9.80;;;;;;;11.72;63.82;100266.91;5002951;28;20201;-72
2021/10/30 10:16:04;;;;;;;16.07;10.17;;;;;;;11.81;64.89;100265.72;5007411;28;20654;-70
2021/10/30 10:18:30;;;;;;;15.23;10.43;;;;;;;11.97;63.21;100273.88;5002755;28;20575;-70
2021/10/30 10:20:59;;;;;;;12.60;9.60;;;;;;;11.95;63.94;100260.03;5007319;28;20214;-74
2021/10/30 10:23:25;;;;;;;15.07;9.60;;;;;;;12.00;63.60;100255.47;5002381;28;20706;-73
2021/10/30 10:25:55;;;;;;;15.40;10.53;;;;;;;11.96;63.63;100251.25;5008173;28;20663;-72
2021/10/30 10:28:23;;;;;;;14.73;10.43;;;;;;;12.01;61.92;100244.94;5002959;28;20211;-73
2021/10/30 10:31:12;;;;;;;15.67;10.20;;;;;;;12.12;62.37;100242.78;5007425;28;20805;-73
2021/10/30 10:33:40;;;;;;;14.43;9.93;;;;;;;12.16;62.37;100240.06;4995711;28;20560;-71
2021/10/30 10:36:23;;;;;;;13.63;9.40;;;;;;;12.22;62.44;100230.19;5000428;28;20210;-71
2021/10/30 10:39:09;;;;;;;14.20;9.57;;;;;;;12.22;62.16;100232.81;4998325;28;20297;-72
2021/10/30 10:42:00;;;;;;;13.90;9.73;;;;;;;12.29;62.17;100212.53;4990916;28;20230;-72
2021/10/30 10:44:56;;;;;;;14.70;9.93;;;;;;;12.34;62.04;100215.81;5005177;28;20352;-73
2021/10/30 10:48:02;;;;;;;14.10;9.93;;;;;;;12.41;61.51;100208.56;5003418;28;20278;-72
2021/10/30 10:50:43;;;;;;;14.37;9.27;;;;;;;12.43;61.82;100204.97;4998439;28;20206;-73
2021/10/30 10:53:28;;;;;;;13.00;9.53;;;;;;;12.54;60.48;100201.94;5000192;28;20227;-72
2021/10/30 10:56:18;;;;;;;13.33;9.17;;;;;;;12.63;60.06;100192.88;4999990;28;20215;-73
2021/10/30 10:59:12;;;;;;;14.40;9.60;;;;;;;12.68;59.92;100178.69;5002845;28;20212;-74
2021/10/30 11:01:40;;;;;;;14.53;9.60;;;;;;;12.71;59.66;100179.47;5005327;28;20239;-72
2021/10/30 11:04:12;;;;;;;11.93;9.37;;;;;;;12.78;59.97;100178.28;5022255;28;20254;-73
2021/10/30 11:06:42;;;;;;;12.63;9.37;;;;;;;12.81;59.38;100175.56;5011631;28;20204;-73
2021/10/30 11:09:17;;;;;;;12.13;9.40;;;;;;;12.81;59.44;100173.78;5006877;28;20224;-72
2021/10/30 11:11:46;;;;;;;14.93;9.30;;;;;;;12.81;58.79;100165.94;5010184;28;20281;-72
2021/10/30 11:14:13;;;;;;;13.10;9.53;;;;;;;12.83;58.78;100164.09;5006404;28;20212;-70
2021/10/30 11:16:45;;;;;;;14.10;9.70;;;;;;;12.97;57.21;100166.13;5015490;28;20787;-74
2021/10/30 11:19:28;;;;;;;13.30;9.50;;;;;;;12.96;58.40;100159.16;5010183;28;20239;-73
2021/10/30 11:22:11;;;;;;;12.87;8.90;;;;;;;12.99;56.21;100151.19;5006456;28;20235;-69